»·PEaware :: UAL1399 KYKM-KPDX

UAL1399 :: KYKM-KPDX

FLIGHT INFORMATION

Flight Status: Arrived
Operator:
United Airlines
More flights by this operator :: More flights under this callsign
Pilot: David C. (16084)
Aircraft: DEHAVILLAND DASH 8 400
(DH8D)
More flights by this aircraft type
Origin: KYKM Yakima Air Term/Mcallister
United States
Destination: KPDX Portland Intl
United States
More flights between these airports :: More routes between these airports
Route: NACHES4 YKM V25 LTJ YENTL HHOOD4
File this flight plan on PilotEdge
Remarks:
Altitude:
(Current/Filed)
16,000ft
Speed:
(Current/Filed)
316kts
Departed: 17-Sep-22 11:32 AM
Arrived: 17-Sep-22 12:06 PM
Distance/Time
Traveled:
103nm/0:34
Distance/Time
To Go:
Arrived

Flight Plot

Page will automatically refresh every two minutes.

Flight plan parsing failed; only flown route is shown


Map Options




Map Legend


Flown Route
Filed Route
Departure Airport
Arrival Airport
Navaid (VOR, NDB)
Fix

Horizontal Profiles

Position Reports

Time Latitude Longitude Heading Altitude Ground
Speed
17-Sep-22 11:06 46.569575 -120.540176 56 1075ft 0kts
17-Sep-22 11:07 46.569575 -120.540176 56 1075ft 0kts
17-Sep-22 11:08 46.569575 -120.540176 56 1075ft 0kts
17-Sep-22 11:09 46.569575 -120.540176 56 1075ft 0kts
17-Sep-22 11:10 46.569575 -120.540176 56 1075ft 0kts
17-Sep-22 11:11 46.569575 -120.540176 56 1075ft 0kts
17-Sep-22 11:12 46.569575 -120.540176 56 1075ft 0kts
17-Sep-22 11:13 46.569575 -120.540176 56 1075ft 0kts
17-Sep-22 11:14 46.569575 -120.540176 56 1075ft 0kts
17-Sep-22 11:15 46.569575 -120.540176 56 1075ft 0kts
17-Sep-22 11:16 46.569575 -120.540176 56 1075ft 0kts
17-Sep-22 11:17 46.569575 -120.540176 56 1075ft 0kts
17-Sep-22 11:18 46.569575 -120.540176 56 1075ft 0kts
17-Sep-22 11:19 46.569575 -120.540176 56 1075ft 0kts
17-Sep-22 11:21 46.569575 -120.540176 56 1075ft 0kts
17-Sep-22 11:22 46.569575 -120.540176 56 1075ft 0kts
17-Sep-22 11:23 46.569575 -120.540176 56 1075ft 0kts
17-Sep-22 11:24 46.569575 -120.540176 56 1075ft 0kts
17-Sep-22 11:25 46.569575 -120.540176 56 1075ft 0kts
17-Sep-22 11:26 46.569575 -120.540176 56 1075ft 0kts
17-Sep-22 11:27 46.569575 -120.540176 56 1075ft 0kts
17-Sep-22 11:28 46.569543 -120.540041 149 1074ft 0kts
17-Sep-22 11:29 46.568233 -120.537666 110 1069ft 14kts
17-Sep-22 11:30 46.567068 -120.532897 109 1061ft 12kts
17-Sep-22 11:31 46.566230 -120.531453 170 1058ft 8kts
17-Sep-22 11:32 46.572269 -120.558332 288 1410ft 157kts
17-Sep-22 11:33 46.613415 -120.594588 335 3468ft 201kts
17-Sep-22 11:34 46.669140 -120.629856 335 5849ft 229kts
17-Sep-22 11:35 46.728532 -120.667040 326 8092ft 238kts
17-Sep-22 11:36 46.725679 -120.740132 199 10124ft 217kts
17-Sep-22 11:37 46.666827 -120.763039 193 12182ft 222kts
17-Sep-22 11:38 46.606062 -120.784139 194 13972ft 229kts
17-Sep-22 11:39 46.543437 -120.806607 195 15555ft 236kts
17-Sep-22 11:40 46.474161 -120.831603 194 15986ft 282kts
17-Sep-22 11:41 46.392589 -120.860818 194 15981ft 317kts
17-Sep-22 11:41 46.319515 -120.886905 194 15978ft 331kts
17-Sep-22 11:43 46.214143 -120.924465 194 15974ft 336kts
17-Sep-22 11:44 46.123480 -120.956655 194 15959ft 336kts
17-Sep-22 11:45 46.032770 -120.988740 194 15949ft 336kts
17-Sep-22 11:45 45.957367 -121.015335 194 15949ft 336kts
17-Sep-22 11:46 45.870747 -121.045801 193 15949ft 336kts
17-Sep-22 11:48 45.764518 -121.083031 193 15949ft 337kts
17-Sep-22 11:49 45.695606 -121.163641 240 15953ft 344kts
17-Sep-22 11:49 45.661281 -121.267189 242 15950ft 348kts
17-Sep-22 11:50 45.621960 -121.390229 242 15527ft 333kts
17-Sep-22 11:51 45.586064 -121.512433 246 14016ft 333kts
17-Sep-22 11:52 45.552951 -121.631532 246 12278ft 302kts
17-Sep-22 11:54 45.530625 -121.763158 271 10424ft 301kts
17-Sep-22 11:54 45.534524 -121.860880 271 9091ft 286kts
17-Sep-22 11:55 45.538427 -121.968859 273 7625ft 256kts
17-Sep-22 11:56 45.532757 -122.058689 235 6564ft 214kts
17-Sep-22 11:57 45.497779 -122.130275 232 6040ft 218kts
17-Sep-22 11:58 45.474451 -122.205473 274 5628ft 216kts
17-Sep-22 11:59 45.481883 -122.293209 276 4414ft 218kts
17-Sep-22 12:00 45.504343 -122.365444 299 3207ft 189kts
17-Sep-22 12:01 45.528920 -122.427249 299 2176ft 164kts
17-Sep-22 12:02 45.550512 -122.482204 298 1395ft 154kts
17-Sep-22 12:03 45.570436 -122.533082 297 625ft 138kts
17-Sep-22 12:04 45.588146 -122.578769 300 32ft 85kts
17-Sep-22 12:05 45.590287 -122.586481 272 32ft 1kts
17-Sep-22 12:06 45.589472 -122.589377 239 32ft 0kts
17-Sep-22 12:07 45.589472 -122.589377 239 32ft 0kts
17-Sep-22 12:08 45.589472 -122.589377 239 32ft 0kts

Navigation Log

Ident Type
Flight plan parsing failed, navigation log unavailable